Time;durP1;ratioP1;P1;durP2;ratioP2;P2;SDS_P1;SDS_P2;PMS_P1;PMS_P2;Temp;Humidity;BMP_temperature;BMP_pressure;BME280_temperature;BME280_humidity;BME280_pressure;Samples;Min_cycle;Max_cycle;Signal;HPM_P1;HPM_P2
2021/09/13 00:00:49;;;;;;;3.42;1.23;;;;;;;17.57;100.00;100978.31;5006471;28;20064;-67
2021/09/13 00:03:16;;;;;;;1.63;1.10;;;;;;;17.61;100.00;100970.13;5007046;28;20101;-66
2021/09/13 00:05:41;;;;;;;1.80;1.20;;;;;;;17.62;100.00;100967.00;4993504;28;20057;-66
2021/09/13 00:08:07;;;;;;;2.65;1.20;;;;;;;17.70;100.00;100963.09;5010706;28;20034;-66
2021/09/13 00:10:33;;;;;;;2.88;0.90;;;;;;;17.66;100.00;100978.66;4999545;28;20034;-67
2021/09/13 00:12:59;;;;;;;1.10;0.90;;;;;;;17.67;100.00;100971.28;5003543;28;20029;-67
2021/09/13 00:15:25;;;;;;;1.23;0.73;;;;;;;17.63;100.00;100979.47;5010230;28;20371;-66
2021/09/13 00:17:51;;;;;;;1.42;0.90;;;;;;;17.64;100.00;100978.28;5010548;28;20104;-66
2021/09/13 00:20:17;;;;;;;2.17;0.90;;;;;;;17.65;100.00;100973.63;5006368;28;20119;-68
2021/09/13 00:22:43;;;;;;;3.50;0.95;;;;;;;17.65;100.00;100970.88;5010080;28;20113;-66
2021/09/13 00:25:09;;;;;;;1.05;0.90;;;;;;;17.68;100.00;100967.38;5010076;28;20034;-67
2021/09/13 00:27:35;;;;;;;1.02;0.75;;;;;;;17.61;100.00;100972.84;5004822;28;20022;-67
2021/09/13 00:30:04;;;;;;;0.85;0.80;;;;;;;17.63;100.00;100974.00;5007902;28;20391;-66
2021/09/13 00:32:30;;;;;;;3.65;1.10;;;;;;;17.69;100.00;100977.09;5005423;28;20042;-68
2021/09/13 00:34:56;;;;;;;1.30;1.10;;;;;;;17.66;100.00;100978.66;4993520;28;20026;-67
2021/09/13 00:37:25;;;;;;;2.60;1.10;;;;;;;17.68;100.00;100978.25;5007841;28;20038;-66
2021/09/13 00:39:51;;;;;;;2.00;0.82;;;;;;;17.66;100.00;100977.88;4993119;28;20084;-67
2021/09/13 00:42:17;;;;;;;2.13;0.80;;;;;;;17.67;100.00;100969.31;5010044;28;20080;-67
2021/09/13 00:44:43;;;;;;;1.33;0.88;;;;;;;17.65;100.00;100976.34;4999805;28;20038;-67
2021/09/13 00:47:08;;;;;;;2.75;0.90;;;;;;;17.68;100.00;100970.09;5003145;28;20029;-68
2021/09/13 00:49:34;;;;;;;1.05;0.75;;;;;;;17.73;100.00;100964.25;4996886;28;20038;-66
2021/09/13 00:52:00;;;;;;;1.00;0.80;;;;;;;17.73;100.00;100964.25;5000169;28;20037;-67
2021/09/13 00:54:25;;;;;;;1.98;1.15;;;;;;;17.72;100.00;100970.84;4999825;28;20030;-66
2021/09/13 00:56:52;;;;;;;1.73;1.00;;;;;;;17.73;100.00;100970.44;5002133;28;20032;-67
2021/09/13 00:59:17;;;;;;;1.08;0.90;;;;;;;17.71;100.00;100972.03;5004491;28;20037;-67
2021/09/13 01:01:43;;;;;;;4.40;1.05;;;;;;;17.65;100.00;100971.66;5008694;28;20517;-67
2021/09/13 01:04:09;;;;;;;1.65;1.17;;;;;;;17.62;100.00;100961.56;5002803;28;20069;-68
2021/09/13 01:06:34;;;;;;;3.70;1.17;;;;;;;17.62;100.00;100961.56;5006392;28;20034;-66
2021/09/13 01:09:00;;;;;;;3.90;1.20;;;;;;;17.64;100.00;100952.97;5009945;28;20117;-67
2021/09/13 01:11:26;;;;;;;1.15;1.05;;;;;;;17.64;100.00;100964.66;5009010;28;20030;-66
2021/09/13 01:13:52;;;;;;;2.00;0.88;;;;;;;17.64;100.00;100970.09;5002440;28;20045;-66
2021/09/13 01:16:19;;;;;;;1.52;1.05;;;;;;;17.65;100.00;100968.91;5008655;28;20560;-68
2021/09/13 01:18:45;;;;;;;2.00;1.20;;;;;;;17.69;100.00;100969.69;5008969;28;20034;-67
2021/09/13 01:21:11;;;;;;;3.58;1.50;;;;;;;17.67;100.00;100977.47;5003623;28;20032;-67
2021/09/13 01:23:38;;;;;;;2.13;1.15;;;;;;;17.70;100.00;100973.19;5007509;28;20038;-66
2021/09/13 01:26:09;;;;;;;2.97;1.30;;;;;;;17.74;100.00;100965.78;4994153;28;20409;-67
2021/09/13 01:28:37;;;;;;;1.85;1.25;;;;;;;17.75;100.00;100965.38;5013259;28;20057;-68
2021/09/13 01:31:04;;;;;;;2.97;1.30;;;;;;;17.70;100.00;100957.63;4986150;28;20076;-68
2021/09/13 01:33:33;;;;;;;4.15;1.33;;;;;;;17.75;100.00;100959.94;5012335;28;20022;-67
2021/09/13 01:35:59;;;;;;;2.28;1.60;;;;;;;17.68;100.00;100959.97;4996278;28;20034;-66
2021/09/13 01:38:28;;;;;;;5.68;1.73;;;;;;;17.64;100.00;100964.66;5012740;28;20375;-68
2021/09/13 01:40:54;;;;;;;2.70;1.70;;;;;;;17.66;100.00;100961.53;5006742;28;20537;-66
2021/09/13 01:43:20;;;;;;;3.60;1.20;;;;;;;17.61;100.00;100970.13;4995414;28;20031;-67
2021/09/13 01:45:46;;;;;;;4.28;1.60;;;;;;;17.65;100.00;100963.47;4993698;28;20502;-67
2021/09/13 01:48:11;;;;;;;10.52;3.75;;;;;;;17.66;100.00;100978.66;5009693;28;20032;-68
2021/09/13 01:50:37;;;;;;;4.20;1.60;;;;;;;17.65;100.00;100971.66;4990210;28;20525;-68
2021/09/13 01:53:03;;;;;;;7.07;1.65;;;;;;;17.67;100.00;100982.16;5011369;28;20117;-66
2021/09/13 01:55:28;;;;;;;3.05;1.80;;;;;;;17.71;100.00;100975.53;5009718;28;20168;-66
2021/09/13 01:57:57;;;;;;;3.40;2.05;;;;;;;17.71;100.00;100972.78;4994806;28;20026;-66
2021/09/13 02:00:24;;;;;;;3.90;2.08;;;;;;;17.70;100.00;100976.69;5008644;28;20075;-67
2021/09/13 02:02:50;;;;;;;3.67;2.03;;;;;;;17.75;100.00;100980.97;5011565;28;20030;-66
2021/09/13 02:05:27;;;;;;;4.88;1.98;;;;;;;17.71;100.00;100983.69;5002870;28;20494;-66
2021/09/13 02:07:55;;;;;;;3.50;2.08;;;;;;;17.74;100.00;100985.66;4994792;28;20030;-67
2021/09/13 02:10:22;;;;;;;6.32;2.38;;;;;;;17.72;100.00;100982.53;5010851;28;20479;-67
2021/09/13 02:12:48;;;;;;;7.78;2.13;;;;;;;17.67;100.00;100979.44;5008188;28;20033;-67
2021/09/13 02:15:14;;;;;;;4.82;2.20;;;;;;;17.64;100.00;100983.72;4987888;28;20033;-67
2021/09/13 02:17:40;;;;;;;5.25;2.30;;;;;;;17.64;100.00;100980.22;5011191;28;20062;-66
2021/09/13 02:20:09;;;;;;;2.78;1.92;;;;;;;17.65;100.00;100984.50;4988507;28;20034;-67
2021/09/13 02:22:35;;;;;;;4.03;1.95;;;;;;;17.74;100.00;100988.38;5009519;28;20081;-67
2021/09/13 02:25:01;;;;;;;6.15;2.78;;;;;;;17.72;100.00;100982.53;5010895;28;20164;-67
2021/09/13 02:27:26;;;;;;;3.17;2.00;;;;;;;17.72;100.00;100987.19;5010882;28;20030;-67
2021/09/13 02:29:52;;;;;;;4.38;2.40;;;;;;;17.75;100.00;100995.34;4990895;28;20034;-68
2021/09/13 02:32:17;;;;;;;5.55;2.17;;;;;;;17.72;100.00;100993.44;5010442;28;20386;-67
2021/09/13 02:34:43;;;;;;;5.05;2.45;;;;;;;17.73;100.00;101000.41;5012832;28;20112;-66
2021/09/13 02:37:09;;;;;;;3.83;2.40;;;;;;;17.75;100.00;100989.91;4987886;28;20573;-67
2021/09/13 02:39:36;;;;;;;6.25;2.83;;;;;;;17.76;100.00;100996.13;5007833;28;20033;-66
2021/09/13 02:42:03;;;;;;;6.47;3.15;;;;;;;17.72;100.00;101003.56;5010647;28;20026;-67
2021/09/13 02:44:28;;;;;;;4.30;2.67;;;;;;;17.69;100.00;101010.56;4988455;28;20091;-66
2021/09/13 02:46:54;;;;;;;5.97;2.60;;;;;;;17.72;100.00;101011.72;5006400;28;20065;-68
2021/09/13 02:49:20;;;;;;;5.70;2.30;;;;;;;17.70;100.00;101017.56;4989217;28;20033;-67
2021/09/13 02:51:45;;;;;;;5.05;2.70;;;;;;;17.71;100.00;101012.91;5010044;28;20449;-68
2021/09/13 02:54:12;;;;;;;6.25;2.90;;;;;;;17.71;100.00;101008.22;5011328;28;20410;-67
2021/09/13 02:56:38;;;;;;;6.68;3.22;;;;;;;17.72;100.00;101017.16;4991152;28;20066;-68
2021/09/13 02:59:04;;;;;;;7.78;3.15;;;;;;;17.70;100.00;101019.50;4990320;28;20063;-70
2021/09/13 03:01:29;;;;;;;4.95;2.50;;;;;;;17.74;100.00;101023.78;5008470;28;20080;-67
2021/09/13 03:03:55;;;;;;;6.70;3.10;;;;;;;17.71;100.00;101023.81;5010448;28;20030;-67
2021/09/13 03:06:21;;;;;;;7.60;3.45;;;;;;;17.72;100.00;101020.69;5005507;28;20026;-67
2021/09/13 03:08:46;;;;;;;4.65;2.50;;;;;;;17.73;100.00;101026.91;4990598;28;20034;-67
2021/09/13 03:11:12;;;;;;;5.15;2.55;;;;;;;17.70;100.00;101023.03;4994011;28;20565;-67
2021/09/13 03:13:37;;;;;;;5.70;2.78;;;;;;;17.71;100.00;101027.28;5006462;28;20076;-67
2021/09/13 03:16:04;;;;;;;5.40;2.63;;;;;;;17.76;100.00;101035.06;5008895;28;20073;-67
2021/09/13 03:18:31;;;;;;;5.47;2.83;;;;;;;17.73;100.00;101033.13;5010527;28;20021;-67
2021/09/13 03:20:58;;;;;;;4.82;2.30;;;;;;;17.71;100.00;101029.25;5010612;28;20541;-67
2021/09/13 03:23:23;;;;;;;5.10;2.47;;;;;;;17.72;100.00;101034.31;4993162;28;20030;-67
2021/09/13 03:25:49;;;;;;;6.13;2.22;;;;;;;17.70;100.00;101030.41;5019522;28;20037;-67
2021/09/13 03:28:15;;;;;;;5.30;2.70;;;;;;;17.71;100.00;101027.28;4994914;28;20038;-67
2021/09/13 03:30:40;;;;;;;4.78;2.60;;;;;;;17.70;100.00;101022.22;5002281;28;20029;-68
2021/09/13 03:33:06;;;;;;;5.90;2.75;;;;;;;17.66;100.00;101030.44;5008516;28;20034;-69
2021/09/13 03:35:31;;;;;;;4.85;2.92;;;;;;;17.64;100.00;101030.03;5009294;28;20030;-68
2021/09/13 03:38:00;;;;;;;6.30;2.97;;;;;;;17.65;100.00;101028.84;4991300;28;20045;-68
2021/09/13 03:40:26;;;;;;;5.22;2.63;;;;;;;17.67;100.00;101029.25;4990708;28;20034;-68
2021/09/13 03:42:52;;;;;;;5.40;2.92;;;;;;;17.68;100.00;101028.09;4992413;28;20044;-71
2021/09/13 03:45:17;;;;;;;5.50;3.00;;;;;;;17.68;100.00;101028.09;4992528;28;20072;-68
2021/09/13 03:48:01;;;;;;;5.50;2.83;;;;;;;17.68;100.00;101025.34;5010547;28;20109;-67
2021/09/13 03:50:31;;;;;;;5.95;3.13;;;;;;;17.72;100.00;101028.84;5009748;28;20568;-67
2021/09/13 03:52:56;;;;;;;8.52;3.53;;;;;;;17.71;100.00;101032.72;5009397;28;20049;-67
2021/09/13 03:55:22;;;;;;;7.40;3.00;;;;;;;17.70;100.00;101027.69;4992920;28;20032;-69
2021/09/13 03:57:47;;;;;;;11.02;3.03;;;;;;;17.71;100.00;101030.00;5010482;28;20429;-67
2021/09/13 04:00:13;;;;;;;6.15;2.80;;;;;;;17.69;100.00;101032.34;5010585;28;20038;-67
2021/09/13 04:02:43;;;;;;;5.95;3.20;;;;;;;17.68;100.00;101025.34;5007867;28;20042;-67
2021/09/13 04:05:13;;;;;;;6.22;3.00;;;;;;;17.72;100.00;101026.13;5006331;28;20037;-68
2021/09/13 04:10:51;;;;;;;;;;;;;;;17.57;100.00;101016.44;4978262;28;20039;-70
2021/09/13 04:13:34;;;;;;;8.70;3.25;;;;;;;17.63;100.00;101028.50;5005271;28;19924;-67
2021/09/13 04:16:14;;;;;;;7.60;3.80;;;;;;;17.72;100.00;101019.91;5010202;28;20116;-68
2021/09/13 04:19:19;;;;;;;8.43;3.80;;;;;;;17.68;100.00;101030.81;4997819;28;20041;-68
2021/09/13 04:22:10;;;;;;;12.63;3.67;;;;;;;17.67;100.00;101028.47;4998639;28;20037;-68
2021/09/13 04:25:05;;;;;;;8.82;3.75;;;;;;;17.64;100.00;101029.25;5000907;28;20140;-67
2021/09/13 04:27:46;;;;;;;6.80;3.65;;;;;;;17.64;100.00;101026.53;5010045;28;20033;-68
2021/09/13 04:30:33;;;;;;;8.07;3.78;;;;;;;17.68;100.00;101030.81;5000853;28;20486;-69
2021/09/13 04:33:25;;;;;;;;;;;;;;;17.54;100.00;101036.28;4983322;28;20406;-68
2021/09/13 04:36:08;;;;;;;5.88;3.40;;;;;;;17.65;100.00;101028.84;5013409;28;19967;-68
2021/09/13 04:39:00;;;;;;;8.30;3.60;;;;;;;17.66;100.00;101027.69;5004234;28;20408;-67
2021/09/13 04:41:44;;;;;;;7.72;3.67;;;;;;;17.66;100.00;101019.53;4991042;28;20029;-68
2021/09/13 04:44:35;;;;;;;8.07;3.38;;;;;;;17.62;100.00;101031.59;5094276;22;20048;-72
2021/09/13 04:47:16;;;;;;;7.93;3.25;;;;;;;17.63;100.00;101023.06;4967818;28;20073;-67
2021/09/13 04:50:00;;;;;;;7.88;3.08;;;;;;;17.65;100.00;101026.13;4991467;28;20176;-69
2021/09/13 04:53:00;;;;;;;9.88;3.28;;;;;;;17.62;100.00;101026.94;4949302;28;20106;-68
2021/09/13 04:55:26;;;;;;;8.88;3.08;;;;;;;17.51;100.00;101023.47;4980760;28;20134;-68
2021/09/13 04:57:52;;;;;;;5.22;3.53;;;;;;;17.50;100.00;101019.16;4973000;28;20045;-67
2021/09/13 05:00:17;;;;;;;5.75;2.85;;;;;;;17.51;100.00;101025.41;4972687;28;20034;-68
2021/09/13 05:02:44;;;;;;;6.78;2.97;;;;;;;17.47;100.00;101025.38;4988744;28;20037;-69
2021/09/13 05:05:10;;;;;;;6.70;3.25;;;;;;;17.45;100.00;101033.16;4987894;28;20022;-69
2021/09/13 05:07:35;;;;;;;9.50;3.53;;;;;;;17.43;100.00;101029.25;4989743;28;20058;-67
2021/09/13 05:10:04;;;;;;;7.88;3.05;;;;;;;17.44;100.00;101031.59;4973053;28;20041;-68
2021/09/13 05:12:31;;;;;;;5.90;2.97;;;;;;;17.46;100.00;101042.88;4971988;28;20133;-68
2021/09/13 05:14:57;;;;;;;8.07;2.95;;;;;;;17.49;100.00;101038.63;4979280;28;20562;-68
2021/09/13 05:17:22;;;;;;;4.75;2.72;;;;;;;17.49;100.00;101044.84;4976599;28;20043;-69
2021/09/13 05:19:49;;;;;;;9.32;3.45;;;;;;;17.54;100.00;101041.72;4971309;28;20038;-69
2021/09/13 05:22:15;;;;;;;9.48;2.88;;;;;;;17.58;100.00;101045.22;4972350;28;20390;-68
2021/09/13 05:24:41;;;;;;;8.30;2.55;;;;;;;17.54;100.00;101039.00;4967275;28;20045;-68
2021/09/13 05:27:09;;;;;;;8.13;2.58;;;;;;;17.56;100.00;101041.31;4985730;28;20125;-68
2021/09/13 05:29:36;;;;;;;4.68;2.60;;;;;;;17.60;100.00;101048.34;4986388;28;20498;-68
2021/09/13 05:32:03;;;;;;;8.20;3.03;;;;;;;17.68;100.00;101055.31;4988377;28;20104;-68
2021/09/13 05:34:29;;;;;;;4.78;2.65;;;;;;;17.68;100.00;101052.59;4972838;28;20176;-68
2021/09/13 05:36:54;;;;;;;6.57;2.60;;;;;;;17.65;100.00;101047.94;4987635;28;20569;-67
2021/09/13 05:39:20;;;;;;;7.82;2.33;;;;;;;17.68;100.00;101055.31;4969032;28;20395;-69
2021/09/13 05:41:53;;;;;;;7.00;3.38;;;;;;;17.73;100.00;101057.63;4985541;28;20129;-67
2021/09/13 05:44:22;;;;;;;5.82;2.38;;;;;;;17.74;100.00;101059.22;4971849;28;20039;-69
2021/09/13 05:46:51;;;;;;;4.70;2.13;;;;;;;17.76;100.00;101053.38;4986971;28;20046;-68
2021/09/13 05:49:17;;;;;;;3.30;2.10;;;;;;;17.78;100.00;101059.19;4982910;28;20054;-67
2021/09/13 05:51:46;;;;;;;5.35;2.33;;;;;;;17.82;100.00;101058.03;4961188;28;20027;-69
2021/09/13 05:54:14;;;;;;;6.97;2.20;;;;;;;17.81;100.00;101061.91;4985317;28;20033;-68
2021/09/13 05:56:41;;;;;;;8.60;2.40;;;;;;;17.86;100.00;101066.97;4972959;28;20030;-68
2021/09/13 05:59:08;;;;;;;3.60;2.15;;;;;;;17.89;100.00;101063.44;4987646;28;20031;-68
2021/09/13 06:01:34;;;;;;;5.25;2.22;;;;;;;17.87;100.00;101065.00;4984989;28;21442;-69
2021/09/13 06:04:02;;;;;;;7.30;2.60;;;;;;;17.89;100.00;101068.91;4970191;28;20046;-68
2021/09/13 06:06:34;;;;;;;3.05;2.00;;;;;;;17.96;100.00;101079.75;4978704;28;20026;-68
2021/09/13 06:09:02;;;;;;;4.72;2.30;;;;;;;18.00;100.00;101075.09;4977128;28;20041;-68
2021/09/13 06:11:30;;;;;;;4.28;1.77;;;;;;;17.96;100.00;101079.00;4987952;28;20070;-68
2021/09/13 06:13:56;;;;;;;3.10;1.55;;;;;;;17.97;100.00;101069.66;4991832;28;20085;-68
2021/09/13 06:16:22;;;;;;;5.07;1.77;;;;;;;17.98;100.00;101068.50;4990781;28;20038;-71
2021/09/13 06:18:49;;;;;;;2.63;1.48;;;;;;;18.09;100.00;101076.63;4991912;28;20407;-67
2021/09/13 06:21:16;;;;;;;2.67;1.42;;;;;;;18.10;100.00;101072.75;4973630;28;20177;-68
2021/09/13 06:23:42;;;;;;;6.40;1.70;;;;;;;18.07;100.00;101074.28;4987697;28;20034;-68
2021/09/13 06:26:08;;;;;;;5.70;1.50;;;;;;;18.08;100.00;101086.75;4990091;28;20042;-70
2021/09/13 06:28:34;;;;;;;1.40;0.93;;;;;;;18.15;100.00;101091.41;4989886;28;20030;-69
2021/09/13 06:31:00;;;;;;;2.20;1.40;;;;;;;18.18;100.00;101090.59;4968313;28;20147;-68
2021/09/13 06:33:27;;;;;;;2.83;1.50;;;;;;;18.18;100.00;101096.84;4958504;28;20551;-68
2021/09/13 06:35:54;;;;;;;3.83;1.30;;;;;;;18.21;100.00;101089.81;4990328;28;20034;-67
2021/09/13 06:38:30;;;;;;;1.23;1.13;;;;;;;18.22;100.00;101092.16;4976023;28;20030;-69
2021/09/13 06:40:56;;;;;;;4.57;1.40;;;;;;;18.27;100.00;101094.47;4991565;28;20074;-68
2021/09/13 06:43:22;;;;;;;1.27;0.73;;;;;;;18.33;100.00;101092.13;4992400;28;20043;-68
2021/09/13 06:45:57;;;;;;;3.95;1.02;;;;;;;18.33;100.00;101086.66;4973572;28;20030;-68
2021/09/13 06:48:22;;;;;;;2.58;1.05;;;;;;;18.37;100.00;101098.34;4989610;28;20042;-69
2021/09/13 06:50:48;;;;;;;2.55;1.40;;;;;;;18.40;100.00;101097.53;4970461;28;20038;-68
2021/09/13 06:53:13;;;;;;;1.25;0.80;;;;;;;18.39;100.00;101093.25;4973947;28;20037;-68
2021/09/13 06:55:40;;;;;;;3.30;1.00;;;;;;;18.39;100.00;101102.22;4983312;28;20034;-68
2021/09/13 06:58:06;;;;;;;3.85;1.45;;;;;;;18.40;100.00;101113.91;4989153;28;20504;-71
2021/09/13 07:00:33;;;;;;;2.92;0.80;;;;;;;18.42;100.00;101119.75;4990690;28;20506;-69
2021/09/13 07:02:59;;;;;;;1.35;1.00;;;;;;;18.43;100.00;101116.63;4990041;28;20034;-68
2021/09/13 07:05:25;;;;;;;1.67;0.73;;;;;;;18.39;100.00;101115.09;4991882;28;20042;-68
2021/09/13 07:07:51;;;;;;;2.08;1.13;;;;;;;18.43;100.00;101124.81;4991093;28;20109;-68
2021/09/13 07:10:17;;;;;;;3.50;0.88;;;;;;;18.51;100.00;101136.47;4990986;28;20026;-68
2021/09/13 07:12:45;;;;;;;3.13;1.00;;;;;;;18.49;100.00;101133.38;4986538;28;20027;-69
2021/09/13 07:15:12;;;;;;;1.58;0.77;;;;;;;18.43;100.00;101135.72;4990442;28;20463;-73
2021/09/13 07:17:38;;;;;;;3.72;0.90;;;;;;;18.44;99.74;101137.31;4988515;28;20133;-70
2021/09/13 07:20:04;;;;;;;2.97;0.60;;;;;;;18.46;98.28;101134.16;4991703;28;20036;-68
2021/09/13 07:22:30;;;;;;;0.80;0.60;;;;;;;18.39;98.20;101134.94;4990226;28;20090;-69
2021/09/13 07:24:55;;;;;;;0.32;0.32;;;;;;;18.39;97.52;101140.38;4991059;28;20022;-68
2021/09/13 07:27:21;;;;;;;0.98;0.68;;;;;;;18.37;97.67;101141.97;4990573;28;20491;-72
2021/09/13 07:29:46;;;;;;;0.75;0.60;;;;;;;18.35;98.13;101152.50;4992126;28;20479;-68
2021/09/13 07:32:12;;;;;;;1.45;0.60;;;;;;;18.34;98.17;101149.00;4990488;28;20069;-68
2021/09/13 07:34:37;;;;;;;3.00;0.70;;;;;;;18.39;97.07;101162.22;4991152;28;20038;-69
2021/09/13 07:37:03;;;;;;;0.68;0.55;;;;;;;18.30;98.03;101161.88;4989101;28;20542;-68
2021/09/13 07:39:29;;;;;;;3.05;0.77;;;;;;;18.33;97.92;101163.03;4991446;28;20045;-68
2021/09/13 07:41:57;;;;;;;1.63;0.68;;;;;;;18.32;99.00;101161.47;4990050;28;20042;-69
2021/09/13 07:44:22;;;;;;;2.60;1.20;;;;;;;18.35;98.85;101157.97;4989104;28;20042;-72
2021/09/13 07:46:48;;;;;;;7.43;0.73;;;;;;;18.43;99.04;101159.50;4990405;28;20124;-69
2021/09/13 07:49:13;;;;;;;3.45;0.70;;;;;;;18.39;99.69;101164.19;4991861;28;20058;-68
2021/09/13 07:51:39;;;;;;;2.28;0.55;;;;;;;18.44;99.89;101175.50;4975530;28;20544;-68
2021/09/13 07:54:06;;;;;;;1.17;0.70;;;;;;;18.42;100.00;101171.56;4986524;28;20042;-71
2021/09/13 07:56:33;;;;;;;3.00;0.75;;;;;;;18.45;99.85;101176.25;4984820;28;20109;-69
2021/09/13 07:59:02;;;;;;;1.92;0.70;;;;;;;18.51;98.86;101185.59;4974244;28;20461;-68
2021/09/13 08:01:28;;;;;;;4.75;1.42;;;;;;;18.55;98.09;101170.78;4986817;28;20462;-68
2021/09/13 08:03:53;;;;;;;1.27;0.90;;;;;;;18.65;96.24;101177.34;4971412;28;20077;-68
2021/09/13 08:06:18;;;;;;;2.67;1.00;;;;;;;18.65;95.79;101175.41;4987008;28;20026;-69
2021/09/13 08:08:44;;;;;;;4.05;0.50;;;;;;;18.65;95.41;101175.41;4988485;28;20073;-68
2021/09/13 08:11:09;;;;;;;0.88;0.60;;;;;;;18.74;94.26;101181.22;4987180;28;20034;-69
2021/09/13 08:13:39;;;;;;;2.72;0.60;;;;;;;18.80;93.55;101178.84;4988344;28;20077;-69
2021/09/13 08:16:05;;;;;;;0.63;0.57;;;;;;;18.76;92.80;101186.25;4987683;28;20045;-72
2021/09/13 08:18:31;;;;;;;1.70;0.50;;;;;;;18.67;92.49;101186.72;4989584;28;20018;-69
2021/09/13 08:20:57;;;;;;;0.80;0.40;;;;;;;18.71;92.06;101186.69;4990051;28;20085;-69
2021/09/13 08:23:23;;;;;;;1.15;0.50;;;;;;;18.75;91.63;101195.63;4981036;28;20975;-71
2021/09/13 08:25:50;;;;;;;0.80;0.50;;;;;;;18.70;92.66;101191.34;4986164;28;20109;-70
2021/09/13 08:28:20;;;;;;;1.13;0.52;;;;;;;18.73;91.69;101197.97;4988424;28;20022;-69
2021/09/13 08:30:47;;;;;;;1.05;0.50;;;;;;;18.71;91.60;101201.13;4988506;28;20030;-71
2021/09/13 08:33:13;;;;;;;0.88;0.40;;;;;;;18.72;91.39;101210.06;4988356;28;20498;-68
2021/09/13 08:35:38;;;;;;;0.70;0.43;;;;;;;18.75;91.64;101212.81;4986718;28;20058;-69
2021/09/13 08:38:04;;;;;;;1.58;0.40;;;;;;;18.67;92.10;101216.72;4988312;28;20061;-70
2021/09/13 08:40:29;;;;;;;1.95;0.50;;;;;;;18.68;92.29;101221.00;4970273;28;20034;-68
2021/09/13 08:42:57;;;;;;;3.00;0.65;;;;;;;18.75;92.38;101222.94;4986750;28;20061;-69
2021/09/13 08:45:30;;;;;;;2.85;0.60;;;;;;;18.76;93.51;101224.47;4986400;28;20022;-69
2021/09/13 08:48:04;;;;;;;1.17;0.60;;;;;;;18.72;92.36;101227.22;4982023;28;20053;-72
2021/09/13 08:52:55;;;;;;;1.55;0.60;;;;;;;18.65;92.33;101242.84;4983143;28;20109;-69
2021/09/13 08:55:21;;;;;;;0.82;0.50;;;;;;;18.63;92.57;101242.47;4988831;28;20077;-70
2021/09/13 08:57:48;;;;;;;1.75;0.50;;;;;;;18.70;91.39;101247.88;4988226;28;20034;-69
2021/09/13 09:00:15;;;;;;;3.72;0.70;;;;;;;18.61;92.22;101248.31;4989261;28;20066;-69
2021/09/13 09:02:42;;;;;;;2.35;0.60;;;;;;;18.54;93.18;101242.09;4989218;28;20058;-69
2021/09/13 09:05:08;;;;;;;2.85;0.93;;;;;;;18.58;93.03;101251.81;4985067;28;20033;-69
2021/09/13 09:07:51;;;;;;;3.10;0.60;;;;;;;18.55;93.29;101252.63;4987108;28;20499;-68
2021/09/13 09:10:23;;;;;;;1.17;0.50;;;;;;;18.55;93.94;101251.84;4987698;28;20048;-68
2021/09/13 09:13:13;;;;;;;3.22;0.68;;;;;;;18.57;92.23;101257.69;4987909;28;20042;-68
2021/09/13 09:15:53;;;;;;;1.30;0.57;;;;;;;18.56;92.45;101256.13;4987349;28;20042;-68
2021/09/13 09:18:19;;;;;;;1.88;0.50;;;;;;;18.59;92.15;101255.34;4987187;28;20125;-68
2021/09/13 09:20:44;;;;;;;2.25;0.60;;;;;;;18.61;92.37;101261.19;4989771;28;20133;-69
2021/09/13 09:23:10;;;;;;;1.15;0.47;;;;;;;18.62;92.31;101251.84;4988609;28;20118;-68
2021/09/13 09:25:39;;;;;;;1.17;0.57;;;;;;;18.67;91.50;101265.06;4990218;28;20141;-69
2021/09/13 09:28:18;;;;;;;2.40;0.75;;;;;;;18.71;91.63;101260.38;4984035;28;20058;-69
2021/09/13 09:30:47;;;;;;;1.98;0.60;;;;;;;18.69;92.20;101260.00;4989193;28;20034;-69
2021/09/13 09:33:15;;;;;;;1.25;0.47;;;;;;;18.76;90.99;101266.19;4989472;28;20035;-68
2021/09/13 09:35:40;;;;;;;0.98;0.50;;;;;;;18.90;90.44;101271.63;4989140;28;20101;-69
2021/09/13 09:38:06;;;;;;;0.60;0.50;;;;;;;18.92;89.71;101263.03;4972136;28;20555;-68
2021/09/13 09:40:31;;;;;;;3.78;0.50;;;;;;;18.88;90.12;101263.03;4989622;28;20498;-68
2021/09/13 09:43:03;;;;;;;1.38;0.60;;;;;;;19.04;89.76;101270.00;4988497;28;20042;-68
2021/09/13 09:45:29;;;;;;;0.98;0.80;;;;;;;19.10;90.42;101263.75;4970923;28;20034;-68
2021/09/13 09:48:10;;;;;;;1.45;0.60;;;;;;;19.10;90.02;101265.69;4994292;28;20057;-68
2021/09/13 09:50:37;;;;;;;1.50;0.60;;;;;;;19.24;89.57;101252.72;4989350;28;20034;-68
2021/09/13 09:53:21;;;;;;;1.42;0.55;;;;;;;19.21;88.75;101264.44;4991838;28;20084;-70
2021/09/13 09:55:53;;;;;;;1.38;0.55;;;;;;;19.22;88.34;101257.03;4990973;28;20092;-68
2021/09/13 09:58:18;;;;;;;2.20;0.47;;;;;;;19.20;88.59;101264.84;4991897;28;20096;-68
2021/09/13 10:00:45;;;;;;;0.70;0.40;;;;;;;19.18;89.06;101259.00;4992951;28;20054;-68
2021/09/13 10:03:10;;;;;;;0.70;0.45;;;;;;;19.17;89.51;101250.03;4992674;28;20031;-69
2021/09/13 10:05:37;;;;;;;3.53;0.90;;;;;;;19.17;89.02;101257.44;4989553;28;20054;-68
2021/09/13 10:08:04;;;;;;;2.55;0.38;;;;;;;19.20;89.05;101257.41;4992482;28;20034;-68
2021/09/13 10:10:31;;;;;;;2.80;0.50;;;;;;;19.18;89.33;101267.97;4989717;28;20044;-69
2021/09/13 10:12:59;;;;;;;1.10;0.73;;;;;;;19.15;89.44;101265.25;4992580;28;20050;-68
2021/09/13 10:15:25;;;;;;;1.55;0.60;;;;;;;19.15;89.26;101257.06;4992705;28;20026;-69
2021/09/13 10:17:51;;;;;;;0.80;0.50;;;;;;;19.14;89.21;101261.78;4992112;28;20069;-68
2021/09/13 10:20:17;;;;;;;1.35;1.08;;;;;;;19.15;88.25;101255.13;4991705;28;20486;-70
2021/09/13 10:22:45;;;;;;;3.85;0.68;;;;;;;19.21;87.68;101256.25;4988744;28;20081;-69
2021/09/13 10:25:11;;;;;;;2.33;0.70;;;;;;;19.17;88.49;101252.78;4994618;28;20049;-68
2021/09/13 10:27:39;;;;;;;0.43;0.40;;;;;;;19.21;88.99;101259.00;4989223;28;20035;-68
2021/09/13 10:30:15;;;;;;;1.35;0.40;;;;;;;19.37;88.55;101261.28;4970540;28;20023;-69
2021/09/13 10:32:43;;;;;;;1.45;0.40;;;;;;;19.38;89.26;101255.41;4990908;28;20038;-68
2021/09/13 10:35:10;;;;;;;1.00;0.40;;;;;;;19.48;87.71;101268.22;4992896;28;20061;-69
2021/09/13 10:37:40;;;;;;;0.65;0.40;;;;;;;19.59;87.53;101255.28;4992097;28;20085;-69
2021/09/13 10:40:15;;;;;;;1.63;0.40;;;;;;;19.69;86.81;101254.41;4986948;28;20041;-68
2021/09/13 10:42:51;;;;;;;1.55;0.50;;;;;;;19.75;86.37;101258.28;4988888;28;20038;-70
2021/09/13 10:45:37;;;;;;;1.17;0.50;;;;;;;19.83;86.77;101264.47;4990549;28;20054;-69
2021/09/13 10:48:19;;;;;;;0.70;0.50;;;;;;;19.76;86.17;101254.38;5010104;23;20140;-67
2021/09/13 10:50:56;;;;;;;1.30;0.40;;;;;;;19.79;85.10;101261.00;5023114;28;20033;-66
2021/09/13 10:53:21;;;;;;;2.47;0.50;;;;;;;19.69;85.93;101264.56;5001242;28;20087;-68
2021/09/13 10:55:49;;;;;;;2.65;0.40;;;;;;;19.68;86.23;101250.16;5007989;28;20540;-69
2021/09/13 10:58:20;;;;;;;0.50;0.40;;;;;;;19.69;85.59;101259.88;5028768;28;20033;-67
2021/09/13 11:00:45;;;;;;;1.00;0.50;;;;;;;19.64;86.86;101263.06;5044174;28;20039;-67
2021/09/13 11:03:23;;;;;;;1.23;0.47;;;;;;;19.57;86.03;101263.09;5041668;28;20029;-67
2021/09/13 11:06:21;;;;;;;0.80;0.60;;;;;;;19.50;85.99;101263.16;5029364;28;20120;-67
2021/09/13 11:08:49;;;;;;;0.82;0.50;;;;;;;19.57;86.92;101263.09;4995329;28;20091;-67
2021/09/13 11:11:17;;;;;;;1.25;0.45;;;;;;;19.51;87.43;101259.22;5024519;28;20048;-68
2021/09/13 11:13:46;;;;;;;2.42;0.43;;;;;;;19.49;88.02;101264.31;5042231;28;20052;-67
2021/09/13 11:16:17;;;;;;;0.68;0.68;;;;;;;19.56;87.44;101261.56;5039335;28;20124;-66
2021/09/13 11:18:45;;;;;;;1.02;0.47;;;;;;;19.59;87.92;101268.94;5012542;28;20493;-69
2021/09/13 11:21:22;;;;;;;0.95;0.43;;;;;;;19.64;87.68;101265.78;5034486;28;20067;-67
2021/09/13 11:24:00;;;;;;;0.93;0.60;;;;;;;19.69;88.26;101264.56;5036335;28;20117;-68
2021/09/13 11:26:43;;;;;;;1.60;0.57;;;;;;;19.72;88.29;101275.47;5016069;28;20508;-68
2021/09/13 11:29:32;;;;;;;4.93;0.50;;;;;;;19.69;88.01;101270.03;5033967;28;20432;-67
2021/09/13 11:31:59;;;;;;;0.60;0.40;;;;;;;19.68;87.63;101277.50;5042313;28;20037;-67